Wauwatosa, WI

8:55 AM CST on November 23, 2014 (GMT -0600)
Honey Creek, Glenview Heights | Change Station
CLOSE
Current Station
Personal Weather Station
Location: Wauwatosa, WI
Elevation: 692 ft
Nearby Weather Stations

Elev 692 ft 43.04 °N, 88.01 °W | Updated 15 seconds ago

Overcast
Overcast
50.2 °F
Feels Like 50.2 °F
N
3.1
Wind Variable Wind from SW
Gusts 4.5 mph

Today
High -- | Low -- °F
--% Chance of Precip.
Yesterday
High -- | Low -- °F
Precip. -- in
6:54 AM 4:22 PM
New Moon, 1% visible
Pressure 29.69 in
Visibility 10.0 miles
Clouds Scattered Clouds 1800 ft
Mostly Cloudy 2500 ft
Overcast 3500 ft
Dew Point 47 °F
Humidity 90%
Rainfall 0.00 in
Snow Depth Not available.
UV 0 out of 12
Pollen .10 out of 12
Air Quality Not available.
Flu Activity Not available.
METAR KMWC 231445Z AUTO 19010KT 10SM SCT018 BKN025 OVC035 09/07 A2969

More Conditions Fewer Conditions

Pressure 29.69 in
Visibility 10.0 miles
Clouds Scattered Clouds 1800 ft
Mostly Cloudy 2500 ft
Overcast 3500 ft
Dew Point 47 °F
Humidity 90%
Rainfall 0.00 in
Snow Depth Not available.
UV 0 out of 12
Pollen .10 out of 12
Air Quality Not available.
Flu Activity Not available.
METAR KMWC 231445Z AUTO 19010KT 10SM SCT018 BKN025 OVC035 09/07 A2969

More Conditions Fewer Conditions

Nowcast | as of 7:24 am CST on November 23, 2014

Light rain will move into far southern Wisconsin between 8 am and 9 am. The leading edge of steady light rain will reach a Lone Rock...Madison to Kenosha line around 10 am...and The Dells...Juneau to Milwaukee line by 11 am. Look for occasional drizzle and areas of fog over all of southern Wisconsin ahead of the light rain.

×

10-Day Weather Forecast

Almanac

Astronomy

Nov. 23, 2014 Rise Set
Actual Time
Civil Twilight
Nautical Twilight
Astronomical Twilight
Moon
Length of Visible Light
Length of Day
Tomorrow will be .
, % of the Moon is Illuminated

Today's Extremes

State Highs State Lows

Community

WunderPhotos

Upload Photos

1,773,078 photos uploaded!

WunderBlogs® & News

Nearby

Air Quality

  Air Quality AQ Index Pollutant
Not available.

Snow Depth

Station Depth Elevation

Earthquake Activity

City Distance Mag. Time & Date
Minimum magnitude displayed is 2.5.

Coastal Water Temperatures

Place Temperature

Nearby Weather Stations